createdAt,value
2022-12-03T00:00:31.671Z,35.19
2022-12-03T00:02:58.647Z,35.24
2022-12-03T00:05:25.603Z,35.10
2022-12-03T00:07:52.500Z,35.35
2022-12-03T00:10:19.735Z,35.53
2022-12-03T00:12:46.936Z,35.34
2022-12-03T00:15:13.895Z,35.02
2022-12-03T00:17:40.803Z,35.30
2022-12-03T00:20:08.183Z,35.40
2022-12-03T00:22:35.036Z,35.45
2022-12-03T00:25:01.918Z,35.38
2022-12-03T00:27:28.784Z,35.40
2022-12-03T00:29:55.635Z,35.65
2022-12-03T00:32:22.514Z,35.58
2022-12-03T00:34:49.395Z,35.39
2022-12-03T00:37:16.306Z,35.38
2022-12-03T00:39:43.270Z,35.30
2022-12-03T00:42:10.116Z,35.47
2022-12-03T00:44:36.981Z,35.81
2022-12-03T00:47:04.048Z,35.44
2022-12-03T00:49:31.288Z,35.65
2022-12-03T00:51:58.142Z,35.57
2022-12-03T00:54:30.223Z,35.48
2022-12-03T00:56:58.823Z,35.57
2022-12-03T00:59:25.879Z,35.50
2022-12-03T01:01:52.811Z,35.46
2022-12-03T01:04:19.829Z,35.80
2022-12-03T01:06:46.860Z,35.61
2022-12-03T01:09:13.726Z,35.78
2022-12-03T01:11:41.495Z,35.48
2022-12-03T01:14:14.047Z,35.46
2022-12-03T01:16:41.462Z,35.86
2022-12-03T01:19:10.455Z,35.99
2022-12-03T01:21:37.553Z,35.68
2022-12-03T01:24:04.837Z,35.78
2022-12-03T01:26:31.693Z,35.89
2022-12-03T01:28:58.587Z,35.83
2022-12-03T01:31:44.161Z,35.90
2022-12-03T01:34:11.155Z,35.63
2022-12-03T01:36:38.055Z,35.87
2022-12-03T01:39:04.994Z,35.63
2022-12-03T01:41:32.091Z,35.78
2022-12-03T01:43:59.034Z,35.99
2022-12-03T01:46:28.917Z,35.60
2022-12-03T01:48:55.802Z,35.95
2022-12-03T01:51:22.678Z,35.75
2022-12-03T01:53:51.133Z,36.08
2022-12-03T01:56:18.321Z,35.79
2022-12-03T01:58:45.490Z,36.00
2022-12-03T02:01:14.624Z,35.72
2022-12-03T02:03:41.673Z,36.04
2022-12-03T02:06:16.464Z,35.84
2022-12-03T02:08:43.946Z,35.79
2022-12-03T02:11:19.037Z,35.91
2022-12-03T02:13:46.039Z,36.06
2022-12-03T02:16:12.918Z,35.83
2022-12-03T02:18:39.823Z,35.95
2022-12-03T02:21:18.949Z,35.98
2022-12-03T02:24:01.232Z,36.14
2022-12-03T02:26:28.199Z,36.10
2022-12-03T02:28:55.074Z,36.08
2022-12-03T02:31:22.446Z,36.12
2022-12-03T02:33:49.486Z,35.77
2022-12-03T02:36:16.413Z,36.13
2022-12-03T02:38:43.362Z,35.89
2022-12-03T02:41:31.864Z,35.89
2022-12-03T02:43:58.804Z,35.93
2022-12-03T02:46:25.691Z,35.88
2022-12-03T02:48:52.642Z,36.04
2022-12-03T02:51:19.496Z,35.77
2022-12-03T02:53:47.563Z,36.12
2022-12-03T02:56:18.479Z,36.22
2022-12-03T02:58:45.786Z,36.15
2022-12-03T03:01:12.823Z,35.85
2022-12-03T03:03:39.934Z,35.79
2022-12-03T03:06:07.127Z,36.02
2022-12-03T03:08:33.986Z,36.08
2022-12-03T03:11:01.616Z,36.08
2022-12-03T03:13:29.245Z,36.06
2022-12-03T03:15:56.131Z,36.12
2022-12-03T03:18:23.026Z,36.10
2022-12-03T03:20:49.884Z,35.74
2022-12-03T03:23:21.245Z,36.16
2022-12-03T03:25:52.308Z,35.79
2022-12-03T03:28:22.035Z,35.62
2022-12-03T03:30:48.888Z,35.81
2022-12-03T03:33:15.867Z,35.88
2022-12-03T03:35:43.208Z,35.82
2022-12-03T03:38:10.182Z,35.98
2022-12-03T03:40:37.839Z,36.13
2022-12-03T03:43:04.753Z,35.75
2022-12-03T03:45:31.706Z,36.07
2022-12-03T03:47:58.637Z,36.17
2022-12-03T03:50:26.863Z,36.02
2022-12-03T03:52:53.717Z,35.98
2022-12-03T03:55:20.711Z,35.97
2022-12-03T03:57:47.624Z,36.03
2022-12-03T04:00:16.901Z,36.36
2022-12-03T04:02:44.037Z,36.25
2022-12-03T04:05:20.270Z,36.33
2022-12-03T04:07:47.361Z,36.05
2022-12-03T04:10:33.078Z,36.28
2022-12-03T04:13:00.145Z,35.97
2022-12-03T04:15:27.075Z,35.85
2022-12-03T04:18:13.396Z,36.12
2022-12-03T04:20:41.327Z,36.37
2022-12-03T04:23:08.364Z,36.18
2022-12-03T04:25:53.862Z,36.21
2022-12-03T04:28:39.400Z,36.13
2022-12-03T04:31:26.339Z,36.28
2022-12-03T04:34:12.029Z,36.14
2022-12-03T04:36:39.073Z,36.46
2022-12-03T04:39:05.982Z,36.45
2022-12-03T04:41:32.909Z,36.62
2022-12-03T04:44:18.602Z,36.46
2022-12-03T04:46:45.450Z,36.57
2022-12-03T04:49:12.900Z,36.50
2022-12-03T04:51:39.797Z,36.46
2022-12-03T04:54:06.718Z,36.48
2022-12-03T04:56:33.525Z,36.54
2022-12-03T04:59:00.398Z,36.47
2022-12-03T05:01:27.298Z,36.51
2022-12-03T05:03:54.236Z,36.57
2022-12-03T05:06:21.134Z,36.61
2022-12-03T05:08:47.997Z,36.64
2022-12-03T05:11:14.908Z,36.58
2022-12-03T05:13:43.072Z,36.44
2022-12-03T05:16:10.488Z,36.42
2022-12-03T05:18:37.476Z,36.29
2022-12-03T05:21:04.640Z,36.60
2022-12-03T05:23:32.222Z,36.66
2022-12-03T05:25:59.129Z,36.53
2022-12-03T05:28:26.087Z,36.35
2022-12-03T05:30:53.021Z,36.62
2022-12-03T05:33:20.622Z,36.34
2022-12-03T05:35:47.706Z,36.46
2022-12-03T05:38:14.567Z,36.62
2022-12-03T05:40:41.437Z,36.60
2022-12-03T05:43:08.354Z,36.67
2022-12-03T05:45:42.901Z,36.68
2022-12-03T05:48:11.308Z,36.28
2022-12-03T05:50:38.793Z,36.38
2022-12-03T05:53:14.923Z,36.42
2022-12-03T05:55:41.946Z,36.78
2022-12-03T05:58:08.900Z,36.91
2022-12-03T06:00:42.809Z,36.88
2022-12-03T06:03:10.444Z,36.89
2022-12-03T06:05:37.817Z,37.03
2022-12-03T06:08:04.938Z,36.75
2022-12-03T06:10:32.579Z,37.16
2022-12-03T06:12:59.513Z,36.94
2022-12-03T06:15:26.416Z,36.93
2022-12-03T06:17:53.379Z,37.02
2022-12-03T06:20:20.363Z,36.87
2022-12-03T06:22:47.639Z,36.96
2022-12-03T06:25:14.679Z,37.17
2022-12-03T06:27:41.577Z,37.10
2022-12-03T06:30:11.509Z,37.42
2022-12-03T06:32:38.345Z,37.52
2022-12-03T06:35:05.551Z,37.35
2022-12-03T06:37:32.447Z,37.12
2022-12-03T06:39:59.309Z,37.15
2022-12-03T06:42:26.205Z,37.51
2022-12-03T06:44:53.405Z,37.32
2022-12-03T06:47:20.389Z,37.34
2022-12-03T06:49:47.226Z,37.34
2022-12-03T06:52:14.140Z,37.60
2022-12-03T06:54:40.994Z,37.30
2022-12-03T06:57:07.844Z,37.57
2022-12-03T06:59:37.536Z,37.66
2022-12-03T07:02:04.995Z,37.88
2022-12-03T07:04:32.002Z,37.84
2022-12-03T07:06:58.998Z,37.36
2022-12-03T07:09:25.911Z,37.59
2022-12-03T07:11:52.845Z,37.56
2022-12-03T07:14:19.963Z,37.53
2022-12-03T07:16:47.650Z,37.79
2022-12-03T07:19:14.592Z,37.79
2022-12-03T07:21:41.585Z,37.78
2022-12-03T07:24:08.486Z,37.67
2022-12-03T07:26:35.462Z,37.47
2022-12-03T07:29:02.388Z,37.60
2022-12-03T07:31:29.373Z,37.47
2022-12-03T07:33:56.298Z,37.42
2022-12-03T07:36:23.242Z,37.73
2022-12-03T07:38:50.125Z,37.47
2022-12-03T07:41:16.974Z,37.90
2022-12-03T07:43:45.304Z,37.59
2022-12-03T07:46:12.366Z,37.45
2022-12-03T07:48:39.254Z,37.61
2022-12-03T07:51:06.721Z,37.52
2022-12-03T07:53:33.648Z,37.62
2022-12-03T07:56:01.282Z,38.40
2022-12-03T07:58:28.400Z,38.29
2022-12-03T08:00:55.318Z,38.89
2022-12-03T08:03:22.202Z,38.80
2022-12-03T08:05:49.166Z,38.74
2022-12-03T08:08:16.183Z,39.10
2022-12-03T08:10:43.158Z,38.80
2022-12-03T08:13:13.051Z,38.83
2022-12-03T08:15:39.951Z,39.46
2022-12-03T08:18:20.536Z,38.98
2022-12-03T08:20:50.310Z,39.17
2022-12-03T08:23:19.673Z,38.99
2022-12-03T08:25:46.810Z,39.08
2022-12-03T08:28:20.277Z,39.13
2022-12-03T08:31:07.467Z,38.89
2022-12-03T08:33:35.743Z,38.84
2022-12-03T08:36:11.597Z,38.90
2022-12-03T08:38:41.144Z,38.94
2022-12-03T08:41:14.880Z,39.09
2022-12-03T08:43:44.791Z,38.82
2022-12-03T08:46:13.990Z,38.93
2022-12-03T08:48:47.072Z,39.03
2022-12-03T08:51:23.774Z,38.83
2022-12-03T08:54:02.069Z,38.69
2022-12-03T08:56:30.217Z,38.94
2022-12-03T08:58:59.259Z,39.02
2022-12-03T09:01:44.442Z,39.10
2022-12-03T09:04:14.376Z,38.81
2022-12-03T09:06:41.255Z,38.74
2022-12-03T09:09:08.216Z,39.12
2022-12-03T09:11:35.145Z,38.92
2022-12-03T09:14:02.033Z,39.08
2022-12-03T09:16:28.973Z,38.84
2022-12-03T09:18:55.916Z,38.74
2022-12-03T09:21:22.841Z,38.67
2022-12-03T09:23:49.737Z,38.49
2022-12-03T09:26:16.610Z,38.62
2022-12-03T09:28:43.505Z,38.79
2022-12-03T09:31:10.383Z,38.80
2022-12-03T09:33:37.226Z,38.61
2022-12-03T09:36:04.456Z,38.79
2022-12-03T09:38:31.358Z,38.75
2022-12-03T09:40:58.260Z,38.77
2022-12-03T09:43:33.514Z,38.56
2022-12-03T09:46:12.101Z,39.03
2022-12-03T09:48:39.013Z,38.64
2022-12-03T09:51:06.113Z,38.67
2022-12-03T09:53:36.700Z,38.83
2022-12-03T09:56:09.093Z,38.55
2022-12-03T09:58:35.972Z,38.84
2022-12-03T10:01:02.993Z,38.87
2022-12-03T10:03:30.580Z,38.46
2022-12-03T10:05:57.606Z,38.55
2022-12-03T10:08:32.370Z,38.82
2022-12-03T10:10:59.584Z,38.61
2022-12-03T10:13:30.528Z,38.81
2022-12-03T10:15:58.771Z,38.54
2022-12-03T10:18:30.507Z,39.12
2022-12-03T10:20:57.834Z,39.02
2022-12-03T10:23:26.607Z,39.20
2022-12-03T10:26:03.108Z,38.71
2022-12-03T10:28:29.878Z,38.87
2022-12-03T10:30:57.322Z,38.71
2022-12-03T10:33:29.388Z,39.03
2022-12-03T10:35:56.271Z,38.71
2022-12-03T10:38:23.289Z,38.90
2022-12-03T10:40:50.324Z,38.83
2022-12-03T10:43:20.164Z,38.75
2022-12-03T10:46:10.051Z,39.08
2022-12-03T10:48:36.976Z,38.78
2022-12-03T10:51:04.705Z,38.92
2022-12-03T10:53:33.525Z,39.22
2022-12-03T10:56:02.008Z,39.15
2022-12-03T10:58:30.474Z,38.81
2022-12-03T11:00:58.175Z,39.20
2022-12-03T11:03:26.932Z,38.85
2022-12-03T11:05:54.785Z,39.28
2022-12-03T11:08:22.530Z,39.13
2022-12-03T11:11:06.266Z,38.97
2022-12-03T11:13:33.278Z,39.20
2022-12-03T11:16:03.489Z,39.35
2022-12-03T11:18:36.343Z,39.13
2022-12-03T11:21:03.223Z,38.85
2022-12-03T11:23:45.157Z,38.84
2022-12-03T11:26:19.798Z,38.54
2022-12-03T11:28:46.901Z,38.58
2022-12-03T11:31:36.236Z,38.51
2022-12-03T11:34:18.369Z,38.67
2022-12-03T11:37:09.994Z,38.87
2022-12-03T11:39:52.222Z,38.45
2022-12-03T11:42:30.285Z,38.52
2022-12-03T11:45:06.068Z,38.89
2022-12-03T11:48:05.112Z,38.85
2022-12-03T11:50:39.709Z,38.72
2022-12-03T11:53:17.475Z,38.73
2022-12-03T11:55:48.470Z,39.00
2022-12-03T11:58:24.630Z,38.75
2022-12-03T12:00:52.451Z,39.30
2022-12-03T12:03:24.010Z,39.22
2022-12-03T12:06:10.920Z,39.36
2022-12-03T12:08:50.852Z,39.33
2022-12-03T12:11:30.544Z,39.44
2022-12-03T12:13:58.827Z,39.40
2022-12-03T12:16:52.814Z,39.59
2022-12-03T12:19:37.149Z,39.42
2022-12-03T12:22:19.511Z,39.76
2022-12-03T12:24:47.425Z,39.82
2022-12-03T12:27:18.944Z,39.73
2022-12-03T12:29:54.337Z,39.94
2022-12-03T12:32:50.094Z,40.27
2022-12-03T12:35:24.153Z,40.33
2022-12-03T12:37:59.037Z,40.46
2022-12-03T12:40:31.307Z,40.28
2022-12-03T12:43:09.938Z,40.47
2022-12-03T12:45:41.565Z,40.52
2022-12-03T12:48:26.720Z,40.91
2022-12-03T12:51:13.029Z,40.63
2022-12-03T12:53:40.483Z,40.54
2022-12-03T12:56:16.698Z,40.63
2022-12-03T12:58:43.596Z,40.25
2022-12-03T13:01:29.783Z,40.80
2022-12-03T13:03:56.783Z,40.72
2022-12-03T13:06:27.927Z,41.01
2022-12-03T13:08:54.859Z,41.26
2022-12-03T13:11:38.808Z,41.27
2022-12-03T13:14:19.847Z,41.02
2022-12-03T13:16:48.058Z,41.07
2022-12-03T13:19:27.887Z,41.21
2022-12-03T13:21:55.730Z,41.46
2022-12-03T13:24:47.884Z,41.45
2022-12-03T13:27:27.172Z,41.48
2022-12-03T13:30:16.185Z,41.76
2022-12-03T13:32:43.046Z,41.66
2022-12-03T13:35:09.948Z,41.99
2022-12-03T13:37:37.011Z,41.88
2022-12-03T13:40:30.691Z,41.94
2022-12-03T13:42:58.011Z,42.00
2022-12-03T13:45:41.650Z,42.06
2022-12-03T13:48:31.293Z,41.76
2022-12-03T13:50:59.698Z,41.81
2022-12-03T13:53:33.223Z,41.90
2022-12-03T13:56:03.190Z,42.21
2022-12-03T13:58:30.106Z,42.27
2022-12-03T14:00:57.050Z,41.91
2022-12-03T14:03:24.009Z,42.25
2022-12-03T14:05:50.921Z,41.86
2022-12-03T14:08:17.919Z,41.76
2022-12-03T14:10:44.859Z,42.01
2022-12-03T14:13:11.748Z,42.27
2022-12-03T14:15:38.703Z,42.05
2022-12-03T14:18:05.629Z,42.41
2022-12-03T14:20:34.460Z,41.93
2022-12-03T14:23:01.398Z,41.98
2022-12-03T14:25:28.270Z,42.25
2022-12-03T14:27:55.165Z,42.19
2022-12-03T14:30:22.049Z,42.04
2022-12-03T14:32:48.902Z,42.31
2022-12-03T14:35:15.948Z,42.26
2022-12-03T14:37:45.030Z,42.32
2022-12-03T14:40:16.531Z,42.21
2022-12-03T14:42:46.636Z,42.57
2022-12-03T14:45:13.615Z,42.62
2022-12-03T14:47:40.671Z,42.77
2022-12-03T14:50:08.265Z,42.57
2022-12-03T14:52:35.249Z,42.41
2022-12-03T14:55:02.162Z,42.38
2022-12-03T14:57:29.117Z,42.68
2022-12-03T14:59:56.259Z,42.50
2022-12-03T15:02:23.476Z,42.21
2022-12-03T15:04:50.456Z,42.16
2022-12-03T15:07:17.334Z,42.27
2022-12-03T15:09:44.201Z,42.12
2022-12-03T15:12:11.130Z,42.40
2022-12-03T15:14:38.212Z,42.29
2022-12-03T15:17:05.225Z,41.96
2022-12-03T15:19:32.212Z,42.37
2022-12-03T15:21:59.109Z,42.38
2022-12-03T15:24:26.021Z,42.51
2022-12-03T15:26:53.632Z,42.29
2022-12-03T15:29:20.674Z,42.25
2022-12-03T15:31:47.610Z,42.54
2022-12-03T15:34:20.325Z,42.30
2022-12-03T15:36:49.192Z,42.64
2022-12-03T15:39:16.077Z,42.26
2022-12-03T15:41:42.951Z,42.46
2022-12-03T15:44:10.013Z,42.23
2022-12-03T15:46:37.061Z,42.43
2022-12-03T15:49:04.025Z,42.16
2022-12-03T15:51:30.891Z,42.36
2022-12-03T15:53:57.816Z,41.99
2022-12-03T15:56:24.695Z,42.28
2022-12-03T15:58:51.607Z,42.36
2022-12-03T16:01:18.694Z,42.46
2022-12-03T16:03:45.700Z,42.46
2022-12-03T16:06:13.015Z,42.41
2022-12-03T16:08:39.976Z,42.22
2022-12-03T16:11:06.902Z,42.43
2022-12-03T16:13:34.384Z,42.55
2022-12-03T16:16:01.725Z,42.57
2022-12-03T16:18:28.958Z,42.53
2022-12-03T16:20:55.814Z,42.59
2022-12-03T16:23:22.780Z,42.61
2022-12-03T16:25:49.676Z,42.16
2022-12-03T16:28:16.714Z,42.24
2022-12-03T16:30:43.746Z,42.11
2022-12-03T16:33:10.643Z,42.19
2022-12-03T16:35:38.077Z,42.37
2022-12-03T16:38:05.031Z,42.42
2022-12-03T16:40:31.897Z,42.22
2022-12-03T16:42:58.793Z,42.15
2022-12-03T16:46:00.946Z,42.05
2022-12-03T16:48:31.307Z,42.10
2022-12-03T16:50:58.246Z,42.31
2022-12-03T16:53:25.273Z,42.76
2022-12-03T16:55:52.121Z,42.52
2022-12-03T16:58:21.345Z,42.46
2022-12-03T17:00:49.034Z,42.53
2022-12-03T17:03:17.886Z,42.54
2022-12-03T17:05:45.189Z,42.23
2022-12-03T17:08:12.256Z,42.35
2022-12-03T17:10:39.331Z,42.63
2022-12-03T17:13:10.480Z,42.67
2022-12-03T17:15:38.242Z,42.43
2022-12-03T17:18:05.617Z,42.41
2022-12-03T17:20:32.989Z,42.11
2022-12-03T17:23:00.106Z,41.89
2022-12-03T17:25:27.153Z,41.97
2022-12-03T17:27:54.293Z,41.84
2022-12-03T17:30:21.379Z,42.31
2022-12-03T17:32:50.413Z,42.33
2022-12-03T17:35:17.650Z,42.02
2022-12-03T17:37:44.581Z,41.84
2022-12-03T17:40:12.374Z,41.94
2022-12-03T17:42:39.413Z,42.23
2022-12-03T17:45:07.077Z,42.19
2022-12-03T17:47:34.007Z,41.98
2022-12-03T17:50:00.856Z,41.42
2022-12-03T17:52:27.770Z,42.00
2022-12-03T17:55:13.149Z,42.12
2022-12-03T17:57:41.541Z,41.94
2022-12-03T18:00:09.744Z,42.11
2022-12-03T18:02:39.269Z,41.86
2022-12-03T18:05:06.396Z,41.85
2022-12-03T18:07:33.537Z,41.92
2022-12-03T18:10:00.477Z,42.03
2022-12-03T18:12:27.452Z,41.74
2022-12-03T18:14:54.306Z,42.11
2022-12-03T18:17:21.178Z,42.09
2022-12-03T18:19:48.126Z,41.83
2022-12-03T18:22:15.150Z,41.83
2022-12-03T18:24:44.012Z,41.95
2022-12-03T18:27:11.865Z,41.88
2022-12-03T18:29:38.715Z,42.06
2022-12-03T18:32:27.052Z,42.00
2022-12-03T18:34:55.171Z,42.01
2022-12-03T18:37:22.037Z,41.81
2022-12-03T18:39:48.960Z,42.02
2022-12-03T18:42:17.371Z,41.77
2022-12-03T18:44:49.499Z,41.77
2022-12-03T18:47:21.381Z,41.81
2022-12-03T18:49:48.334Z,42.04
2022-12-03T18:52:16.773Z,42.07
2022-12-03T18:54:43.752Z,42.00
2022-12-03T18:57:10.723Z,41.83
2022-12-03T18:59:37.604Z,41.77
2022-12-03T19:02:05.149Z,41.60
2022-12-03T19:04:32.073Z,41.98
2022-12-03T19:06:58.980Z,41.87
2022-12-03T19:09:26.027Z,41.82
2022-12-03T19:11:52.883Z,41.93
2022-12-03T19:14:19.791Z,41.62
2022-12-03T19:16:46.851Z,41.79
2022-12-03T19:19:13.762Z,41.95
2022-12-03T19:21:40.679Z,41.71
2022-12-03T19:24:24.986Z,41.90
2022-12-03T19:26:54.701Z,41.72
2022-12-03T19:29:22.980Z,41.98
2022-12-03T19:31:52.262Z,41.82
2022-12-03T19:34:19.312Z,41.97
2022-12-03T19:36:46.360Z,41.94
2022-12-03T19:39:13.361Z,41.94
2022-12-03T19:41:41.919Z,41.80
2022-12-03T19:44:14.607Z,41.63
2022-12-03T19:46:41.546Z,41.68
2022-12-03T19:49:08.424Z,41.89
2022-12-03T19:51:36.532Z,41.92
2022-12-03T19:54:04.764Z,41.95
2022-12-03T19:56:31.615Z,41.76
2022-12-03T19:58:58.604Z,41.51
2022-12-03T20:01:27.313Z,41.53
2022-12-03T20:03:55.095Z,41.41
2022-12-03T20:06:24.231Z,41.79
2022-12-03T20:08:51.850Z,41.75
2022-12-03T20:11:20.845Z,41.88
2022-12-03T20:13:48.541Z,41.85
2022-12-03T20:16:15.832Z,41.47
2022-12-03T20:18:44.159Z,41.35
2022-12-03T20:21:11.406Z,41.53
2022-12-03T20:23:38.660Z,41.51
2022-12-03T20:26:13.023Z,41.40
2022-12-03T20:28:40.112Z,41.45
2022-12-03T20:31:13.379Z,41.51
2022-12-03T20:33:42.487Z,41.62
2022-12-03T20:36:10.035Z,41.78
2022-12-03T20:38:37.302Z,41.66
2022-12-03T20:41:05.859Z,41.61
2022-12-03T20:43:33.014Z,41.51
2022-12-03T20:46:32.570Z,42.04
2022-12-03T20:48:59.652Z,41.73
2022-12-03T20:51:28.200Z,41.71
2022-12-03T20:53:55.682Z,41.80
2022-12-03T20:56:27.333Z,41.71
2022-12-03T20:58:54.366Z,42.22
2022-12-03T21:01:26.632Z,42.12
2022-12-03T21:03:55.023Z,42.08
2022-12-03T21:06:22.282Z,41.89
2022-12-03T21:08:49.233Z,41.76
2022-12-03T21:11:18.586Z,41.91
2022-12-03T21:13:45.772Z,41.94
2022-12-03T21:16:17.402Z,41.98
2022-12-03T21:18:44.384Z,41.31
2022-12-03T21:21:12.015Z,41.64
2022-12-03T21:23:38.961Z,41.28
2022-12-03T21:26:10.451Z,41.08
2022-12-03T21:28:38.027Z,41.36
2022-12-03T21:31:06.279Z,41.26
2022-12-03T21:33:33.282Z,41.23
2022-12-03T21:36:00.355Z,41.45
2022-12-03T21:38:27.631Z,41.26
2022-12-03T21:40:54.649Z,41.43
2022-12-03T21:43:21.847Z,41.41
2022-12-03T21:45:49.123Z,41.59
2022-12-03T21:48:16.257Z,41.65
2022-12-03T21:50:43.230Z,41.64
2022-12-03T21:53:10.259Z,41.83
2022-12-03T21:55:40.781Z,42.07
2022-12-03T21:58:08.476Z,42.07
2022-12-03T22:00:35.813Z,42.11
2022-12-03T22:03:03.195Z,41.66
2022-12-03T22:05:30.225Z,41.88
2022-12-03T22:07:57.149Z,41.64
2022-12-03T22:10:24.021Z,41.76
2022-12-03T22:12:50.879Z,41.88
2022-12-03T22:15:19.470Z,41.99
2022-12-03T22:17:47.022Z,41.70
2022-12-03T22:20:14.128Z,41.79
2022-12-03T22:22:41.177Z,41.68
2022-12-03T22:25:08.246Z,41.65
2022-12-03T22:27:35.278Z,41.48
2022-12-03T22:30:02.643Z,41.80
2022-12-03T22:32:29.611Z,41.73
2022-12-03T22:34:56.499Z,41.44
2022-12-03T22:37:23.406Z,41.66
2022-12-03T22:39:50.328Z,41.69
2022-12-03T22:42:17.276Z,41.65
2022-12-03T22:44:44.239Z,41.41
2022-12-03T22:47:11.096Z,41.54
2022-12-03T22:49:38.028Z,41.47
2022-12-03T22:52:04.937Z,41.32
2022-12-03T22:54:31.789Z,41.55
2022-12-03T22:56:58.665Z,41.29
2022-12-03T22:59:25.555Z,41.42
2022-12-03T23:01:52.433Z,41.32
2022-12-03T23:04:19.447Z,41.27
2022-12-03T23:06:46.419Z,41.30
2022-12-03T23:09:13.339Z,41.55
2022-12-03T23:11:40.263Z,41.51
2022-12-03T23:14:07.153Z,41.76
2022-12-03T23:16:34.318Z,41.53
2022-12-03T23:19:01.487Z,41.75
2022-12-03T23:21:30.615Z,41.62
2022-12-03T23:24:01.553Z,41.54
2022-12-03T23:26:28.863Z,41.27
2022-12-03T23:28:56.110Z,41.41
2022-12-03T23:31:25.144Z,41.66
2022-12-03T23:33:52.413Z,41.47
2022-12-03T23:36:19.859Z,41.61
2022-12-03T23:38:46.811Z,41.48
2022-12-03T23:41:15.029Z,41.34
2022-12-03T23:43:42.097Z,41.46
2022-12-03T23:46:10.807Z,41.63
2022-12-03T23:48:37.816Z,41.73
2022-12-03T23:51:06.292Z,41.97
2022-12-03T23:53:33.197Z,41.67
2022-12-03T23:56:00.084Z,41.69
2022-12-03T23:58:26.955Z,41.71
